»·PEaware :: N172SP KLAX-KSAN

N172SP :: KLAX-KSAN

FLIGHT INFORMATION

Flight Status: Arrived
Operator: Privately registered:
United States
More flights under this callsign
Pilot: Shaurye C. (26796)
Aircraft: CESSNA 172 SKYHAWK
(C172)
More flights by this aircraft type
Origin: KLAX Los Angeles Intl
United States
Destination: KSAN San Diego Intl-Lindbergh
United States
More flights between these airports :: More routes between these airports
Route: +
File this flight plan on PilotEdge
Remarks: nffse
Altitude:
(Current/Filed)
7,500ft
Speed:
(Current/Filed)
0kts
Departed: 14-Jan-20 09:31 AM
Arrived: 14-Jan-20 10:29 AM
Distance/Time
Traveled:
95nm/0:58
Distance/Time
To Go:
Arrived

Flight Plot

Page will automatically refresh every two minutes.


Map Options




Map Legend


Flown Route
Filed Route
Departure Airport
Arrival Airport
Navaid (VOR, NDB)
Fix

Horizontal Profiles

Position Reports

Time Latitude Longitude Heading Altitude Ground
Speed
14-Jan-20 09:20 33.932697 -118.398060 354 110ft 0kts
14-Jan-20 09:21 33.932697 -118.398060 354 110ft 0kts
14-Jan-20 09:22 33.932697 -118.398060 354 110ft 0kts
14-Jan-20 09:23 33.932697 -118.398060 354 110ft 0kts
14-Jan-20 09:24 33.932697 -118.398060 354 110ft 0kts
14-Jan-20 09:25 33.932697 -118.398060 354 110ft 0kts
14-Jan-20 09:26 33.934219 -118.398208 352 110ft 12kts
14-Jan-20 09:27 33.935207 -118.391771 82 102ft 33kts
14-Jan-20 09:28 33.936080 -118.383202 70 97ft 16kts
14-Jan-20 09:29 33.936509 -118.382809 352 96ft 0kts
14-Jan-20 09:30 33.937058 -118.385754 262 99ft 57kts
14-Jan-20 09:31 33.934058 -118.418546 267 668ft 110kts
14-Jan-20 09:32 33.929983 -118.471429 268 1724ft 113kts
14-Jan-20 09:33 33.901983 -118.480906 123 2482ft 120kts
14-Jan-20 09:34 33.879499 -118.441842 123 2890ft 120kts
14-Jan-20 09:35 33.859176 -118.409639 136 3267ft 122kts
14-Jan-20 09:36 33.834403 -118.382803 137 3618ft 124kts
14-Jan-20 09:37 33.811024 -118.357182 137 3939ft 125kts
14-Jan-20 09:38 33.786472 -118.330179 137 4267ft 125kts
14-Jan-20 09:39 33.762595 -118.303920 138 4479ft 131kts
14-Jan-20 09:40 33.736691 -118.275586 138 4478ft 127kts
14-Jan-20 09:41 33.707349 -118.243236 137 4802ft 127kts
14-Jan-20 09:42 33.678126 -118.211119 137 5151ft 127kts
14-Jan-20 09:43 33.651595 -118.181996 137 5465ft 130kts
14-Jan-20 09:44 33.624440 -118.152219 138 5798ft 131kts
14-Jan-20 09:45 33.597380 -118.122590 138 6123ft 131kts
14-Jan-20 09:46 33.569961 -118.092595 138 6444ft 132kts
14-Jan-20 09:47 33.542420 -118.062624 138 6479ft 133kts
14-Jan-20 09:48 33.515122 -118.032771 138 6683ft 132kts
14-Jan-20 09:49 33.487800 -118.002910 138 6978ft 133kts
14-Jan-20 09:50 33.460300 -117.972924 138 7268ft 134kts
14-Jan-20 09:51 33.432589 -117.942754 139 7480ft 139kts
14-Jan-20 09:52 33.403177 -117.910812 138 7480ft 143kts
14-Jan-20 09:53 33.373703 -117.878803 138 7480ft 143kts
14-Jan-20 09:54 33.344027 -117.846594 137 7481ft 143kts
14-Jan-20 09:55 33.314864 -117.815024 136 7480ft 138kts
14-Jan-20 09:56 33.286637 -117.784443 136 7481ft 137kts
14-Jan-20 09:57 33.258439 -117.753900 136 7481ft 137kts
14-Jan-20 09:58 33.230243 -117.723395 136 7481ft 137kts
14-Jan-20 09:59 33.201984 -117.692853 136 7482ft 137kts
14-Jan-20 10:00 33.173807 -117.662425 136 7491ft 137kts
14-Jan-20 10:01 33.145488 -117.631876 136 7491ft 137kts
14-Jan-20 10:02 33.117226 -117.601415 136 7491ft 137kts
14-Jan-20 10:03 33.089045 -117.570931 135 7489ft 135kts
14-Jan-20 10:04 33.061348 -117.540833 136 7487ft 134kts
14-Jan-20 10:05 33.039494 -117.506848 101 7474ft 126kts
14-Jan-20 10:06 33.060319 -117.485697 14 7481ft 106kts
14-Jan-20 10:07 33.088587 -117.476486 15 7104ft 104kts
14-Jan-20 10:08 33.115111 -117.464872 45 6691ft 105kts
14-Jan-20 10:09 33.104382 -117.439936 162 6478ft 123kts
14-Jan-20 10:10 33.073930 -117.418317 131 6475ft 128kts
14-Jan-20 10:11 33.049442 -117.384776 131 6425ft 132kts
14-Jan-20 10:12 33.023250 -117.355063 158 5996ft 129kts
14-Jan-20 10:13 32.992937 -117.338298 157 5586ft 128kts
14-Jan-20 10:14 32.960298 -117.319530 156 5499ft 127kts
14-Jan-20 10:15 32.954754 -117.303716 3 5845ft 111kts
14-Jan-20 10:16 32.973689 -117.330422 267 5476ft 116kts
14-Jan-20 10:17 32.945795 -117.335324 154 5497ft 127kts
14-Jan-20 10:18 32.915271 -117.314723 152 5492ft 126kts
14-Jan-20 10:19 32.885257 -117.294218 152 4987ft 128kts
14-Jan-20 10:20 32.854112 -117.272838 151 4472ft 128kts
14-Jan-20 10:21 32.824194 -117.252314 151 3984ft 127kts
14-Jan-20 10:22 32.794816 -117.232175 151 3527ft 126kts
14-Jan-20 10:23 32.777779 -117.206381 107 3506ft 110kts
14-Jan-20 10:24 32.769774 -117.177954 107 3508ft 112kts
14-Jan-20 10:25 32.761297 -117.150480 128 3516ft 114kts
14-Jan-20 10:26 32.736110 -117.152751 208 2867ft 111kts
14-Jan-20 10:27 32.730815 -117.178891 294 130ft 79kts
14-Jan-20 10:28 32.732974 -117.188173 246 15ft 13kts
14-Jan-20 10:29 32.732571 -117.188562 211 14ft 0kts
14-Jan-20 10:30 32.732570 -117.188562 207 14ft 0kts
14-Jan-20 10:31 32.732600 -117.189954 287 15ft 11kts
14-Jan-20 10:32 32.732212 -117.191469 291 16ft 0kts
14-Jan-20 10:33 32.732212 -117.191469 291 16ft 0kts
14-Jan-20 10:34 32.732212 -117.191469 291 16ft 0kts
14-Jan-20 10:35 32.732212 -117.191469 291 16ft 0kts
14-Jan-20 10:36 32.732212 -117.191469 291 16ft 0kts
14-Jan-20 10:37 32.732212 -117.191469 291 16ft 0kts
14-Jan-20 10:38 32.732212 -117.191469 291 16ft 0kts
14-Jan-20 10:39 32.732212 -117.191469 291 16ft 0kts
14-Jan-20 10:40 32.732212 -117.191469 291 16ft 0kts
14-Jan-20 10:41 32.732212 -117.191469 291 16ft 0kts
14-Jan-20 10:42 32.732212 -117.191469 291 16ft 0kts

Navigation Log

Ident Type
Flight plan parsing failed, navigation log unavailable